createdAt,value
2023-04-06T00:01:09.519Z,2.30
2023-04-06T00:03:36.786Z,2.20
2023-04-06T00:06:04.345Z,2.10
2023-04-06T00:08:31.491Z,2.00
2023-04-06T00:10:58.501Z,1.90
2023-04-06T00:13:25.456Z,1.80
2023-04-06T00:15:52.396Z,1.80
2023-04-06T00:18:20.550Z,1.90
2023-04-06T00:20:47.559Z,1.80
2023-04-06T00:23:14.496Z,1.80
2023-04-06T00:25:41.523Z,1.70
2023-04-06T00:28:08.504Z,1.80
2023-04-06T00:30:35.508Z,1.70
2023-04-06T00:33:02.506Z,1.60
2023-04-06T00:35:29.611Z,1.80
2023-04-06T00:37:56.573Z,1.70
2023-04-06T00:40:23.522Z,1.80
2023-04-06T00:42:51.026Z,1.70
2023-04-06T00:45:18.092Z,1.60
2023-04-06T00:47:46.292Z,1.60
2023-04-06T00:50:13.304Z,1.50
2023-04-06T00:52:40.406Z,1.40
2023-04-06T00:55:09.620Z,1.30
2023-04-06T00:57:41.289Z,1.40
2023-04-06T01:00:08.838Z,1.40
2023-04-06T01:02:36.353Z,1.10
2023-04-06T01:05:03.603Z,1.30
2023-04-06T01:07:44.154Z,1.40
2023-04-06T01:10:29.504Z,1.40
2023-04-06T01:13:06.066Z,1.40
2023-04-06T01:15:48.185Z,1.40
2023-04-06T01:18:30.155Z,1.30
2023-04-06T01:21:20.569Z,1.40
2023-04-06T01:24:08.893Z,1.30
2023-04-06T01:26:53.272Z,1.30
2023-04-06T01:29:20.635Z,1.40
2023-04-06T01:31:47.782Z,1.30
2023-04-06T01:34:15.705Z,0.90
2023-04-06T01:36:42.737Z,1.00
2023-04-06T01:39:22.243Z,1.10
2023-04-06T01:41:49.402Z,1.10
2023-04-06T01:44:19.909Z,1.10
2023-04-06T01:46:52.740Z,1.10
2023-04-06T01:49:20.279Z,1.00
2023-04-06T01:51:53.415Z,1.00
2023-04-06T01:54:20.708Z,1.00
2023-04-06T01:57:03.089Z,1.10
2023-04-06T01:59:40.009Z,1.20
2023-04-06T02:02:14.206Z,0.90
2023-04-06T02:04:46.826Z,0.80
2023-04-06T02:07:15.013Z,0.90
2023-04-06T02:09:42.939Z,0.90
2023-04-06T02:12:16.212Z,0.80
2023-04-06T02:14:43.365Z,0.70
2023-04-06T02:17:10.680Z,0.70
2023-04-06T02:19:37.948Z,0.60
2023-04-06T02:22:04.877Z,0.70
2023-04-06T02:24:33.373Z,0.80
2023-04-06T02:27:00.883Z,0.80
2023-04-06T02:29:27.905Z,0.90
2023-04-06T02:31:55.221Z,0.90
2023-04-06T02:34:22.834Z,0.90
2023-04-06T02:36:52.171Z,1.00
2023-04-06T02:39:19.044Z,0.80
2023-04-06T02:41:46.744Z,0.90
2023-04-06T02:44:19.718Z,0.90
2023-04-06T02:46:47.895Z,0.80
2023-04-06T02:49:14.922Z,0.80
2023-04-06T02:51:42.024Z,0.90
2023-04-06T02:54:22.833Z,0.80
2023-04-06T02:56:50.006Z,0.70
2023-04-06T02:59:17.614Z,0.70
2023-04-06T03:01:53.062Z,0.70
2023-04-06T03:04:20.757Z,0.70
2023-04-06T03:06:48.048Z,0.60
2023-04-06T03:09:28.328Z,0.50
2023-04-06T03:11:56.193Z,0.50
2023-04-06T03:14:24.524Z,0.50
2023-04-06T03:16:51.485Z,0.30
2023-04-06T03:19:21.814Z,0.40
2023-04-06T03:21:49.446Z,0.60
2023-04-06T03:24:18.477Z,0.60
2023-04-06T03:26:45.408Z,0.60
2023-04-06T03:29:12.470Z,0.40
2023-04-06T03:31:39.371Z,0.50
2023-04-06T03:34:13.001Z,0.40
2023-04-06T03:36:41.009Z,0.50
2023-04-06T03:39:08.073Z,0.40
2023-04-06T03:41:39.199Z,0.50
2023-04-06T03:44:15.959Z,0.60
2023-04-06T03:46:44.815Z,0.60
2023-04-06T03:49:12.126Z,0.60
2023-04-06T03:51:40.799Z,0.50
2023-04-06T03:54:08.909Z,0.50
2023-04-06T03:56:37.664Z,0.50
2023-04-06T03:59:05.484Z,0.50
2023-04-06T04:01:32.606Z,0.60
2023-04-06T04:03:59.647Z,0.50
2023-04-06T04:06:26.744Z,0.60
2023-04-06T04:08:53.720Z,0.60
2023-04-06T04:11:21.001Z,0.60
2023-04-06T04:13:53.681Z,0.70
2023-04-06T04:16:20.748Z,0.70
2023-04-06T04:18:49.671Z,0.60
2023-04-06T04:21:16.708Z,0.60
2023-04-06T04:23:43.736Z,0.60
2023-04-06T04:26:11.513Z,0.80
2023-04-06T04:28:38.642Z,0.80
2023-04-06T04:31:05.668Z,0.80
2023-04-06T04:33:34.929Z,0.70
2023-04-06T04:36:06.512Z,0.60
2023-04-06T04:38:39.721Z,0.60
2023-04-06T04:41:06.747Z,0.80
2023-04-06T04:43:35.911Z,0.90
2023-04-06T04:46:05.084Z,0.90
2023-04-06T04:48:43.419Z,0.90
2023-04-06T04:51:10.442Z,0.80
2023-04-06T04:53:49.132Z,0.80
2023-04-06T04:56:26.417Z,0.90
2023-04-06T04:58:59.098Z,0.80
2023-04-06T05:01:28.794Z,0.90
2023-04-06T05:03:56.106Z,0.90
2023-04-06T05:06:23.223Z,0.90
2023-04-06T05:08:50.403Z,1.10
2023-04-06T05:11:17.725Z,1.10
2023-04-06T05:13:50.038Z,1.10
2023-04-06T05:16:21.078Z,1.20
2023-04-06T05:18:49.569Z,1.20
2023-04-06T05:21:16.919Z,1.30
2023-04-06T05:23:56.064Z,1.40
2023-04-06T05:26:23.310Z,1.50
2023-04-06T05:28:55.683Z,1.50
2023-04-06T05:31:23.779Z,1.50
2023-04-06T05:33:51.980Z,1.60
2023-04-06T05:36:29.300Z,1.70
2023-04-06T05:38:56.963Z,1.70
2023-04-06T05:41:44.162Z,1.90
2023-04-06T05:44:12.832Z,1.90
2023-04-06T05:46:42.996Z,2.00
2023-04-06T05:49:14.540Z,2.10
2023-04-06T05:51:41.580Z,2.00
2023-04-06T05:54:08.555Z,2.10
2023-04-06T05:56:35.530Z,2.10
2023-04-06T05:59:03.502Z,2.10
2023-04-06T06:01:31.972Z,2.30
2023-04-06T06:04:02.526Z,2.40
2023-04-06T06:06:32.606Z,2.50
2023-04-06T06:09:20.328Z,2.60
2023-04-06T06:11:57.983Z,2.80
2023-04-06T06:14:29.521Z,2.90
2023-04-06T06:16:56.765Z,3.00
2023-04-06T06:19:23.837Z,3.20
2023-04-06T06:21:54.407Z,3.20
2023-04-06T06:24:22.446Z,3.30
2023-04-06T06:26:49.973Z,3.60
2023-04-06T06:29:18.880Z,3.60
2023-04-06T06:31:45.926Z,3.70
2023-04-06T06:34:14.175Z,3.80
2023-04-06T06:36:42.507Z,3.90
2023-04-06T06:39:12.026Z,4.00
2023-04-06T06:41:39.913Z,4.00
2023-04-06T06:44:07.238Z,4.20
2023-04-06T06:46:35.629Z,4.40
2023-04-06T06:49:02.611Z,4.50
2023-04-06T06:51:29.560Z,4.60
2023-04-06T06:53:56.666Z,4.70
2023-04-06T06:56:23.545Z,4.80
2023-04-06T06:58:52.573Z,4.90
2023-04-06T07:01:19.971Z,4.90
2023-04-06T07:03:47.064Z,5.10
2023-04-06T07:06:14.129Z,5.20
2023-04-06T07:08:41.295Z,5.40
2023-04-06T07:11:08.949Z,5.60
2023-04-06T07:13:36.782Z,5.50
2023-04-06T07:16:04.359Z,5.50
2023-04-06T07:18:32.854Z,5.60
2023-04-06T07:21:01.101Z,5.80
2023-04-06T07:23:28.495Z,5.90
2023-04-06T07:25:55.781Z,6.00
2023-04-06T07:28:23.227Z,6.00
2023-04-06T07:30:50.882Z,6.20
2023-04-06T07:33:18.211Z,6.20
2023-04-06T07:35:45.312Z,6.20
2023-04-06T07:38:12.641Z,6.20
2023-04-06T07:40:41.008Z,6.40
2023-04-06T07:43:07.996Z,6.60
2023-04-06T07:45:36.311Z,6.70
2023-04-06T07:48:03.360Z,6.80
2023-04-06T07:50:31.393Z,6.90
2023-04-06T07:52:58.861Z,7.00
2023-04-06T07:55:26.426Z,7.20
2023-04-06T07:57:53.386Z,7.30
2023-04-06T08:00:21.089Z,7.50
2023-04-06T08:02:48.077Z,7.60
2023-04-06T08:05:15.168Z,7.70
2023-04-06T08:07:42.778Z,7.70
2023-04-06T08:10:10.457Z,7.80
2023-04-06T08:12:37.447Z,8.00
2023-04-06T08:15:04.918Z,8.10
2023-04-06T08:17:33.298Z,8.00
2023-04-06T08:20:00.702Z,8.20
2023-04-06T08:22:27.718Z,8.30
2023-04-06T08:24:54.669Z,8.20
2023-04-06T08:27:21.665Z,8.30
2023-04-06T08:29:50.771Z,8.40
2023-04-06T08:32:17.725Z,8.50
2023-04-06T08:34:44.694Z,8.70
2023-04-06T08:37:11.650Z,8.70
2023-04-06T08:39:38.715Z,8.70
2023-04-06T08:42:06.501Z,8.90
2023-04-06T08:44:34.203Z,9.10
2023-04-06T08:47:01.932Z,9.00
2023-04-06T08:49:29.085Z,9.10
2023-04-06T08:51:58.368Z,9.20
2023-04-06T08:54:25.680Z,9.40
2023-04-06T08:56:54.122Z,9.50
2023-04-06T08:59:21.419Z,9.50
2023-04-06T09:01:48.688Z,9.60
2023-04-06T09:04:16.912Z,9.50
2023-04-06T09:06:44.520Z,9.60
2023-04-06T09:09:12.745Z,9.90
2023-04-06T09:11:51.342Z,10.00
2023-04-06T09:14:34.137Z,9.90
2023-04-06T09:17:01.140Z,10.00
2023-04-06T09:19:28.141Z,9.80
2023-04-06T09:22:06.044Z,9.70
2023-04-06T09:24:46.271Z,9.90
2023-04-06T09:27:14.504Z,9.70
2023-04-06T09:29:42.543Z,9.80
2023-04-06T09:32:17.792Z,9.60
2023-04-06T09:34:50.749Z,9.40
2023-04-06T09:37:19.491Z,9.40
2023-04-06T09:39:47.179Z,9.60
2023-04-06T09:42:35.837Z,9.80
2023-04-06T09:45:04.149Z,9.80
2023-04-06T09:47:37.147Z,10.00
2023-04-06T09:50:05.074Z,10.10
2023-04-06T09:52:39.494Z,10.00
2023-04-06T09:55:09.025Z,10.10
2023-04-06T09:57:49.069Z,10.30
2023-04-06T10:00:20.222Z,10.90
2023-04-06T10:03:02.728Z,10.70
2023-04-06T10:05:42.973Z,10.90
2023-04-06T10:08:14.415Z,11.20
2023-04-06T10:10:41.713Z,11.30
2023-04-06T10:13:11.448Z,11.10
2023-04-06T10:15:41.365Z,11.40
2023-04-06T10:18:09.149Z,11.40
2023-04-06T10:20:56.021Z,11.50
2023-04-06T10:23:38.225Z,11.80
2023-04-06T10:26:05.483Z,11.50
2023-04-06T10:28:36.730Z,11.80
2023-04-06T10:31:07.165Z,11.40
2023-04-06T10:33:35.101Z,11.70
2023-04-06T10:36:27.706Z,12.10
2023-04-06T10:39:00.081Z,11.80
2023-04-06T10:41:45.865Z,11.60
2023-04-06T10:44:23.003Z,12.00
2023-04-06T10:46:56.877Z,12.10
2023-04-06T10:49:27.416Z,12.00
2023-04-06T10:51:58.663Z,12.30
2023-04-06T10:54:27.979Z,12.20
2023-04-06T10:56:55.487Z,12.40
2023-04-06T10:59:23.808Z,11.90
2023-04-06T11:01:51.472Z,11.90
2023-04-06T11:04:19.607Z,11.70
2023-04-06T11:06:51.334Z,12.00
2023-04-06T11:09:30.357Z,12.10
2023-04-06T11:11:58.069Z,12.60
2023-04-06T11:14:25.255Z,12.50
2023-04-06T11:16:52.468Z,12.40
2023-04-06T11:19:19.573Z,12.10
2023-04-06T11:21:48.555Z,12.00
2023-04-06T11:24:25.606Z,12.10
2023-04-06T11:26:57.986Z,12.40
2023-04-06T11:29:30.082Z,13.00
2023-04-06T11:32:03.802Z,13.00
2023-04-06T11:34:36.528Z,12.80
2023-04-06T11:37:08.038Z,12.60
2023-04-06T11:39:47.685Z,12.60
2023-04-06T11:42:21.983Z,12.50
2023-04-06T11:44:52.300Z,12.70
2023-04-06T11:47:19.631Z,13.00
2023-04-06T11:49:46.655Z,13.40
2023-04-06T11:52:26.463Z,13.50
2023-04-06T11:54:55.286Z,12.50
2023-04-06T11:57:26.472Z,13.00
2023-04-06T11:59:53.773Z,13.20
2023-04-06T12:02:21.134Z,13.60
2023-04-06T12:04:48.472Z,13.60
2023-04-06T12:07:15.650Z,13.50
2023-04-06T12:09:44.088Z,13.40
2023-04-06T12:12:11.202Z,13.00
2023-04-06T12:14:38.171Z,13.10
2023-04-06T12:17:05.146Z,13.70
2023-04-06T12:19:32.702Z,14.00
2023-04-06T12:21:59.892Z,13.90
2023-04-06T12:24:26.886Z,14.10
2023-04-06T12:27:06.500Z,14.00
2023-04-06T12:29:36.849Z,14.10
2023-04-06T12:32:03.871Z,13.90
2023-04-06T12:34:31.232Z,14.10
2023-04-06T12:36:58.338Z,14.40
2023-04-06T12:39:26.451Z,14.10
2023-04-06T12:41:54.076Z,14.30
2023-04-06T12:44:21.294Z,14.40
2023-04-06T12:46:48.313Z,14.50
2023-04-06T12:49:17.876Z,14.00
2023-04-06T12:51:44.843Z,14.20
2023-04-06T12:54:12.948Z,14.60
2023-04-06T12:56:40.548Z,14.60
2023-04-06T12:59:07.728Z,14.60
2023-04-06T13:01:34.732Z,14.80
2023-04-06T13:04:01.969Z,14.50
2023-04-06T13:06:29.564Z,13.70
2023-04-06T13:08:56.850Z,13.40
2023-04-06T13:11:28.786Z,13.70
2023-04-06T13:13:56.037Z,14.00
2023-04-06T13:16:23.349Z,13.90
2023-04-06T13:18:51.274Z,13.50
2023-04-06T13:21:18.520Z,14.10
2023-04-06T13:23:45.671Z,14.10
2023-04-06T13:26:14.583Z,13.70
2023-04-06T13:28:42.244Z,13.60
2023-04-06T13:31:10.776Z,13.60
2023-04-06T13:33:38.277Z,13.60
2023-04-06T13:36:07.161Z,13.60
2023-04-06T13:38:34.794Z,13.80
2023-04-06T13:41:01.804Z,14.00
2023-04-06T13:43:28.829Z,14.00
2023-04-06T13:45:56.781Z,13.80
2023-04-06T13:48:23.993Z,13.60
2023-04-06T13:50:51.260Z,13.80
2023-04-06T13:53:18.228Z,13.60
2023-04-06T13:55:52.920Z,13.60
2023-04-06T13:58:19.920Z,13.60
2023-04-06T14:00:47.323Z,13.70
2023-04-06T14:03:14.617Z,13.70
2023-04-06T14:05:42.162Z,13.70
2023-04-06T14:08:09.230Z,13.90
2023-04-06T14:10:41.371Z,14.10
2023-04-06T14:13:08.609Z,14.10
2023-04-06T14:15:36.295Z,14.10
2023-04-06T14:18:03.515Z,13.90
2023-04-06T14:20:33.490Z,14.00
2023-04-06T14:23:04.089Z,13.80
2023-04-06T14:25:33.077Z,13.50
2023-04-06T14:28:00.289Z,13.40
2023-04-06T14:30:29.227Z,13.50
2023-04-06T14:32:59.281Z,13.60
2023-04-06T14:35:29.203Z,13.30
2023-04-06T14:37:59.128Z,13.50
2023-04-06T14:40:26.373Z,13.50
2023-04-06T14:42:53.316Z,13.60
2023-04-06T14:45:22.637Z,13.80
2023-04-06T14:47:50.045Z,13.50
2023-04-06T14:50:17.161Z,13.60
2023-04-06T14:52:44.232Z,13.50
2023-04-06T14:55:11.162Z,13.30
2023-04-06T14:57:38.182Z,13.30
2023-04-06T15:00:06.082Z,13.50
2023-04-06T15:02:34.066Z,13.80
2023-04-06T15:05:01.185Z,13.80
2023-04-06T15:07:28.368Z,13.80
2023-04-06T15:09:55.580Z,13.50
2023-04-06T15:12:22.534Z,13.30
2023-04-06T15:14:49.430Z,13.10
2023-04-06T15:17:16.546Z,12.90
2023-04-06T15:19:43.523Z,12.70
2023-04-06T15:22:12.423Z,12.60
2023-04-06T15:24:39.462Z,12.40
2023-04-06T15:27:06.606Z,12.50
2023-04-06T15:29:33.570Z,12.50
2023-04-06T15:32:00.590Z,12.60
2023-04-06T15:34:31.234Z,12.70
2023-04-06T15:37:02.616Z,12.50
2023-04-06T15:39:29.647Z,12.40
2023-04-06T15:41:57.714Z,12.30
2023-04-06T15:44:25.790Z,12.50
2023-04-06T15:46:53.678Z,12.30
2023-04-06T15:49:21.389Z,12.20
2023-04-06T15:51:49.444Z,12.20
2023-04-06T15:54:16.534Z,11.90
2023-04-06T15:56:43.853Z,11.70
2023-04-06T15:59:10.835Z,11.60
2023-04-06T16:01:38.028Z,11.80
2023-04-06T16:04:08.156Z,11.70
2023-04-06T16:06:35.771Z,11.80
2023-04-06T16:09:02.775Z,11.70
2023-04-06T16:11:29.937Z,11.50
2023-04-06T16:13:57.126Z,11.50
2023-04-06T16:16:24.475Z,11.40
2023-04-06T16:18:51.607Z,11.60
2023-04-06T16:21:18.890Z,11.70
2023-04-06T16:23:47.956Z,11.60
2023-04-06T16:26:16.660Z,11.40
2023-04-06T16:28:44.202Z,11.30
2023-04-06T16:31:37.586Z,11.30
2023-04-06T16:34:04.716Z,11.10
2023-04-06T16:36:33.641Z,11.00
2023-04-06T16:39:02.347Z,11.00
2023-04-06T16:41:29.359Z,10.90
2023-04-06T16:43:57.468Z,11.00
2023-04-06T16:46:34.654Z,11.00
2023-04-06T16:49:03.263Z,10.90
2023-04-06T16:51:32.372Z,10.90
2023-04-06T16:53:59.512Z,11.00
2023-04-06T16:56:26.564Z,11.00
2023-04-06T16:58:53.463Z,11.10
2023-04-06T17:01:26.427Z,11.00
2023-04-06T17:03:54.682Z,11.00
2023-04-06T17:06:22.112Z,11.00
2023-04-06T17:08:49.554Z,10.90
2023-04-06T17:11:20.251Z,10.90
2023-04-06T17:13:50.838Z,10.80
2023-04-06T17:16:19.337Z,10.70
2023-04-06T17:18:46.331Z,10.70
2023-04-06T17:21:17.160Z,10.60
2023-04-06T17:23:44.588Z,10.60
2023-04-06T17:26:11.839Z,10.60
2023-04-06T17:28:39.311Z,10.60
2023-04-06T17:31:11.320Z,10.50
2023-04-06T17:33:41.176Z,10.40
2023-04-06T17:36:10.934Z,10.30
2023-04-06T17:38:43.292Z,10.30
2023-04-06T17:41:14.106Z,10.40
2023-04-06T17:43:41.304Z,10.20
2023-04-06T17:46:08.324Z,10.20
2023-04-06T17:48:35.484Z,10.20
2023-04-06T17:51:02.531Z,10.30
2023-04-06T17:53:32.396Z,10.20
2023-04-06T17:56:03.729Z,10.20
2023-04-06T17:58:31.134Z,10.10
2023-04-06T18:00:58.135Z,10.10
2023-04-06T18:03:25.137Z,10.10
2023-04-06T18:05:52.610Z,10.10
2023-04-06T18:08:19.630Z,10.00
2023-04-06T18:10:48.383Z,10.10
2023-04-06T18:13:15.696Z,10.10
2023-04-06T18:15:42.741Z,10.20
2023-04-06T18:18:09.832Z,10.20
2023-04-06T18:20:41.480Z,10.10
2023-04-06T18:23:08.617Z,10.20
2023-04-06T18:25:42.114Z,9.80
2023-04-06T18:28:09.830Z,9.90
2023-04-06T18:30:36.815Z,9.90
2023-04-06T18:33:04.364Z,9.90
2023-04-06T18:35:31.526Z,9.90
2023-04-06T18:37:58.580Z,9.90
2023-04-06T18:40:36.728Z,9.70
2023-04-06T18:43:05.980Z,9.70
2023-04-06T18:45:38.749Z,9.60
2023-04-06T18:48:06.640Z,9.60
2023-04-06T18:50:34.020Z,9.60
2023-04-06T18:53:01.400Z,9.70
2023-04-06T18:55:28.464Z,9.60
2023-04-06T18:57:55.623Z,9.50
2023-04-06T19:00:22.739Z,9.50
2023-04-06T19:02:49.981Z,9.40
2023-04-06T19:05:17.262Z,9.50
2023-04-06T19:07:48.079Z,9.50
2023-04-06T19:10:15.330Z,9.40
2023-04-06T19:12:42.308Z,9.20
2023-04-06T19:15:10.143Z,9.30
2023-04-06T19:17:38.136Z,9.30
2023-04-06T19:20:08.684Z,9.40
2023-04-06T19:22:36.916Z,9.40
2023-04-06T19:25:05.396Z,9.40
2023-04-06T19:27:32.617Z,9.30
2023-04-06T19:30:00.701Z,9.30
2023-04-06T19:32:30.266Z,9.20
2023-04-06T19:34:59.530Z,9.10
2023-04-06T19:37:26.832Z,9.20
2023-04-06T19:39:53.767Z,9.10
2023-04-06T19:42:21.799Z,9.10
2023-04-06T19:44:49.088Z,9.00
2023-04-06T19:47:16.540Z,9.10
2023-04-06T19:49:43.707Z,9.20
2023-04-06T19:52:11.184Z,9.10
2023-04-06T19:54:40.496Z,9.20
2023-04-06T19:57:08.242Z,9.20
2023-04-06T19:59:35.393Z,9.10
2023-04-06T20:02:02.731Z,9.10
2023-04-06T20:04:30.046Z,9.10
2023-04-06T20:06:57.109Z,8.90
2023-04-06T20:09:24.615Z,9.00
2023-04-06T20:11:54.034Z,9.10
2023-04-06T20:14:22.982Z,9.00
2023-04-06T20:16:50.956Z,8.90
2023-04-06T20:19:18.298Z,8.90
2023-04-06T20:21:45.398Z,9.00
2023-04-06T20:24:12.451Z,9.00
2023-04-06T20:26:39.593Z,9.00
2023-04-06T20:29:06.693Z,9.00
2023-04-06T20:31:33.982Z,8.90
2023-04-06T20:34:01.698Z,9.00
2023-04-06T20:36:32.374Z,8.90
2023-04-06T20:38:59.567Z,8.90
2023-04-06T20:41:26.536Z,8.90
2023-04-06T20:43:53.561Z,8.80
2023-04-06T20:46:20.717Z,8.80
2023-04-06T20:48:47.911Z,8.70
2023-04-06T20:51:23.802Z,8.70
2023-04-06T20:53:51.742Z,8.70
2023-04-06T20:56:20.137Z,8.70
2023-04-06T20:58:47.343Z,8.60
2023-04-06T21:01:16.011Z,8.60
2023-04-06T21:03:43.807Z,8.50
2023-04-06T21:06:11.459Z,8.50
2023-04-06T21:08:38.673Z,8.40
2023-04-06T21:11:06.418Z,8.30
2023-04-06T21:13:34.806Z,8.20
2023-04-06T21:16:02.167Z,8.20
2023-04-06T21:18:32.340Z,8.20
2023-04-06T21:20:59.669Z,8.30
2023-04-06T21:23:26.598Z,8.10
2023-04-06T21:25:57.001Z,8.20
2023-04-06T21:28:25.329Z,8.20
2023-04-06T21:30:53.556Z,8.10
2023-04-06T21:33:20.639Z,8.10
2023-04-06T21:35:47.608Z,8.00
2023-04-06T21:38:14.637Z,8.10
2023-04-06T21:40:41.617Z,8.10
2023-04-06T21:43:08.874Z,7.90
2023-04-06T21:45:35.942Z,7.80
2023-04-06T21:48:03.001Z,7.80
2023-04-06T21:50:30.003Z,7.70
2023-04-06T21:52:56.952Z,7.80
2023-04-06T21:55:23.976Z,7.80
2023-04-06T21:57:50.982Z,7.80
2023-04-06T22:00:18.629Z,7.70
2023-04-06T22:02:45.933Z,7.70
2023-04-06T22:05:13.426Z,7.80
2023-04-06T22:07:40.591Z,7.70
2023-04-06T22:10:08.095Z,7.80
2023-04-06T22:12:35.041Z,7.90
2023-04-06T22:15:01.954Z,8.00
2023-04-06T22:17:29.627Z,7.80
2023-04-06T22:19:56.672Z,7.90
2023-04-06T22:22:24.749Z,8.00
2023-04-06T22:24:51.955Z,8.00
2023-04-06T22:27:18.945Z,8.10
2023-04-06T22:29:45.818Z,8.00
2023-04-06T22:32:12.807Z,8.10
2023-04-06T22:34:39.816Z,8.20
2023-04-06T22:37:06.788Z,8.20
2023-04-06T22:39:33.763Z,8.20
2023-04-06T22:42:00.752Z,8.10
2023-04-06T22:44:27.781Z,8.10
2023-04-06T22:46:54.749Z,8.10
2023-04-06T22:49:21.749Z,7.90
2023-04-06T22:51:48.743Z,7.90
2023-04-06T22:54:15.833Z,8.00
2023-04-06T22:56:42.767Z,8.00
2023-04-06T22:59:09.743Z,8.10
2023-04-06T23:01:36.883Z,8.10
2023-04-06T23:04:03.948Z,8.10
2023-04-06T23:06:31.005Z,8.00
2023-04-06T23:08:57.917Z,8.00
2023-04-06T23:11:24.977Z,8.00
2023-04-06T23:13:52.006Z,8.00
2023-04-06T23:16:20.151Z,7.90
2023-04-06T23:18:47.234Z,8.00
2023-04-06T23:21:14.109Z,7.90
2023-04-06T23:23:41.362Z,7.90
2023-04-06T23:26:08.327Z,7.90
2023-04-06T23:28:35.230Z,7.90
2023-04-06T23:31:02.175Z,7.80
2023-04-06T23:33:29.185Z,7.80
2023-04-06T23:35:56.280Z,7.80
2023-04-06T23:38:23.248Z,7.90
2023-04-06T23:40:50.468Z,7.90
2023-04-06T23:43:17.462Z,7.80
2023-04-06T23:45:44.511Z,7.70
2023-04-06T23:48:11.506Z,7.70
2023-04-06T23:50:38.718Z,7.70
2023-04-06T23:53:05.898Z,7.60
2023-04-06T23:55:32.909Z,7.50
2023-04-06T23:58:00.140Z,7.50
